sensor_id;sensor_type;location;lat;lon;timestamp;P1;durP1;ratioP1;P2;durP2;ratioP2
54977;SDS011;40873;47.522;19.106;2023-03-31T00:00:49;39.45;;;23.58;;
54977;SDS011;40873;47.522;19.106;2023-03-31T00:03:18;37.58;;;23.77;;
54977;SDS011;40873;47.522;19.106;2023-03-31T00:05:56;38.28;;;23.02;;
54977;SDS011;40873;47.522;19.106;2023-03-31T00:08:25;36.30;;;23.80;;
54977;SDS011;40873;47.522;19.106;2023-03-31T00:10:59;35.80;;;24.00;;
54977;SDS011;40873;47.522;19.106;2023-03-31T00:13:29;38.35;;;22.70;;
54977;SDS011;40873;47.522;19.106;2023-03-31T00:16:00;38.05;;;23.95;;
54977;SDS011;40873;47.522;19.106;2023-03-31T00:18:32;34.78;;;22.80;;
54977;SDS011;40873;47.522;19.106;2023-03-31T00:21:06;35.60;;;23.73;;
54977;SDS011;40873;47.522;19.106;2023-03-31T00:23:40;36.55;;;22.70;;
54977;SDS011;40873;47.522;19.106;2023-03-31T00:26:07;25.83;;;17.08;;
54977;SDS011;40873;47.522;19.106;2023-03-31T00:28:34;34.65;;;20.40;;
54977;SDS011;40873;47.522;19.106;2023-03-31T00:31:02;33.58;;;19.67;;
54977;SDS011;40873;47.522;19.106;2023-03-31T00:33:29;21.98;;;12.18;;
54977;SDS011;40873;47.522;19.106;2023-03-31T00:35:57;25.55;;;15.27;;
54977;SDS011;40873;47.522;19.106;2023-03-31T00:38:28;18.35;;;11.32;;
54977;SDS011;40873;47.522;19.106;2023-03-31T00:40:55;22.92;;;13.35;;
54977;SDS011;40873;47.522;19.106;2023-03-31T00:43:27;17.40;;;10.77;;
54977;SDS011;40873;47.522;19.106;2023-03-31T00:46:05;14.68;;;9.18;;
54977;SDS011;40873;47.522;19.106;2023-03-31T00:48:46;18.90;;;8.82;;
54977;SDS011;40873;47.522;19.106;2023-03-31T00:51:17;14.95;;;9.35;;
54977;SDS011;40873;47.522;19.106;2023-03-31T00:53:48;10.45;;;6.88;;
54977;SDS011;40873;47.522;19.106;2023-03-31T00:56:25;11.40;;;6.88;;
54977;SDS011;40873;47.522;19.106;2023-03-31T00:58:56;10.40;;;5.80;;
54977;SDS011;40873;47.522;19.106;2023-03-31T01:01:28;9.10;;;5.50;;
54977;SDS011;40873;47.522;19.106;2023-03-31T01:03:56;10.05;;;5.80;;
54977;SDS011;40873;47.522;19.106;2023-03-31T01:06:24;8.35;;;5.50;;
54977;SDS011;40873;47.522;19.106;2023-03-31T01:08:56;10.57;;;5.65;;
54977;SDS011;40873;47.522;19.106;2023-03-31T01:11:23;12.15;;;5.20;;
54977;SDS011;40873;47.522;19.106;2023-03-31T01:13:53;8.70;;;5.03;;
54977;SDS011;40873;47.522;19.106;2023-03-31T01:16:22;7.40;;;4.28;;
54977;SDS011;40873;47.522;19.106;2023-03-31T01:18:49;7.90;;;4.75;;
54977;SDS011;40873;47.522;19.106;2023-03-31T01:33:16;6.60;;;4.60;;
54977;SDS011;40873;47.522;19.106;2023-03-31T01:44:42;7.97;;;4.32;;
54977;SDS011;40873;47.522;19.106;2023-03-31T01:47:44;10.70;;;4.30;;
54977;SDS011;40873;47.522;19.106;2023-03-31T01:50:21;11.00;;;4.03;;
54977;SDS011;40873;47.522;19.106;2023-03-31T01:53:16;10.52;;;4.95;;
54977;SDS011;40873;47.522;19.106;2023-03-31T01:58:37;7.65;;;3.72;;
54977;SDS011;40873;47.522;19.106;2023-03-31T02:01:13;8.50;;;4.38;;
54977;SDS011;40873;47.522;19.106;2023-03-31T02:04:22;8.70;;;4.43;;
54977;SDS011;40873;47.522;19.106;2023-03-31T02:06:56;6.22;;;3.33;;
54977;SDS011;40873;47.522;19.106;2023-03-31T02:09:31;4.70;;;3.00;;
54977;SDS011;40873;47.522;19.106;2023-03-31T02:12:04;11.85;;;3.97;;
54977;SDS011;40873;47.522;19.106;2023-03-31T02:14:36;5.35;;;3.45;;
54977;SDS011;40873;47.522;19.106;2023-03-31T02:17:10;6.28;;;3.42;;
54977;SDS011;40873;47.522;19.106;2023-03-31T02:19:44;5.63;;;3.70;;
54977;SDS011;40873;47.522;19.106;2023-03-31T02:22:16;7.88;;;4.15;;
54977;SDS011;40873;47.522;19.106;2023-03-31T02:24:47;10.85;;;4.00;;
54977;SDS011;40873;47.522;19.106;2023-03-31T02:27:24;7.72;;;3.40;;
54977;SDS011;40873;47.522;19.106;2023-03-31T02:29:56;4.45;;;2.90;;
54977;SDS011;40873;47.522;19.106;2023-03-31T02:32:28;7.07;;;3.03;;
54977;SDS011;40873;47.522;19.106;2023-03-31T02:35:00;6.70;;;3.50;;
54977;SDS011;40873;47.522;19.106;2023-03-31T02:37:27;4.28;;;2.88;;
54977;SDS011;40873;47.522;19.106;2023-03-31T02:39:57;5.43;;;2.80;;
54977;SDS011;40873;47.522;19.106;2023-03-31T02:42:26;9.13;;;3.70;;
54977;SDS011;40873;47.522;19.106;2023-03-31T02:45:00;6.22;;;3.40;;
54977;SDS011;40873;47.522;19.106;2023-03-31T02:47:28;5.43;;;3.70;;
54977;SDS011;40873;47.522;19.106;2023-03-31T02:49:56;7.10;;;3.22;;
54977;SDS011;40873;47.522;19.106;2023-03-31T02:52:32;7.20;;;3.72;;
54977;SDS011;40873;47.522;19.106;2023-03-31T02:58:22;7.40;;;3.60;;
54977;SDS011;40873;47.522;19.106;2023-03-31T03:11:51;6.45;;;3.63;;
54977;SDS011;40873;47.522;19.106;2023-03-31T03:14:49;5.15;;;3.03;;
54977;SDS011;40873;47.522;19.106;2023-03-31T03:19:55;10.35;;;2.83;;
54977;SDS011;40873;47.522;19.106;2023-03-31T03:22:25;7.13;;;3.20;;
54977;SDS011;40873;47.522;19.106;2023-03-31T03:24:52;6.25;;;3.22;;
54977;SDS011;40873;47.522;19.106;2023-03-31T03:27:20;11.35;;;3.65;;
54977;SDS011;40873;47.522;19.106;2023-03-31T03:29:49;10.07;;;3.38;;
54977;SDS011;40873;47.522;19.106;2023-03-31T03:32:17;5.15;;;3.35;;
54977;SDS011;40873;47.522;19.106;2023-03-31T03:34:43;5.47;;;3.35;;
54977;SDS011;40873;47.522;19.106;2023-03-31T03:37:11;5.72;;;2.70;;
54977;SDS011;40873;47.522;19.106;2023-03-31T03:39:38;5.85;;;3.88;;
54977;SDS011;40873;47.522;19.106;2023-03-31T03:42:05;6.22;;;3.33;;
54977;SDS011;40873;47.522;19.106;2023-03-31T03:44:31;5.45;;;3.28;;
54977;SDS011;40873;47.522;19.106;2023-03-31T03:46:58;9.88;;;2.95;;
54977;SDS011;40873;47.522;19.106;2023-03-31T03:49:25;5.38;;;2.88;;
54977;SDS011;40873;47.522;19.106;2023-03-31T03:51:52;5.47;;;3.30;;
54977;SDS011;40873;47.522;19.106;2023-03-31T03:54:19;5.00;;;3.00;;
54977;SDS011;40873;47.522;19.106;2023-03-31T03:56:46;6.47;;;2.60;;
54977;SDS011;40873;47.522;19.106;2023-03-31T03:59:13;5.53;;;3.13;;
54977;SDS011;40873;47.522;19.106;2023-03-31T04:01:40;6.45;;;3.08;;
54977;SDS011;40873;47.522;19.106;2023-03-31T04:04:07;6.10;;;2.80;;
54977;SDS011;40873;47.522;19.106;2023-03-31T04:06:34;5.18;;;2.70;;
54977;SDS011;40873;47.522;19.106;2023-03-31T04:09:02;6.45;;;3.17;;
54977;SDS011;40873;47.522;19.106;2023-03-31T04:11:29;5.88;;;3.05;;
54977;SDS011;40873;47.522;19.106;2023-03-31T04:13:56;5.60;;;3.03;;
54977;SDS011;40873;47.522;19.106;2023-03-31T04:16:23;5.05;;;2.92;;
54977;SDS011;40873;47.522;19.106;2023-03-31T04:18:51;7.28;;;3.40;;
54977;SDS011;40873;47.522;19.106;2023-03-31T04:21:22;6.18;;;2.97;;
54977;SDS011;40873;47.522;19.106;2023-03-31T04:23:52;7.95;;;3.05;;
54977;SDS011;40873;47.522;19.106;2023-03-31T04:26:32;5.43;;;2.30;;
54977;SDS011;40873;47.522;19.106;2023-03-31T04:29:13;7.40;;;2.47;;
54977;SDS011;40873;47.522;19.106;2023-03-31T04:31:46;4.25;;;2.15;;
54977;SDS011;40873;47.522;19.106;2023-03-31T04:34:13;7.72;;;2.97;;
54977;SDS011;40873;47.522;19.106;2023-03-31T04:36:42;4.32;;;2.50;;
54977;SDS011;40873;47.522;19.106;2023-03-31T04:39:15;6.07;;;2.58;;
54977;SDS011;40873;47.522;19.106;2023-03-31T04:41:43;3.47;;;2.22;;
54977;SDS011;40873;47.522;19.106;2023-03-31T04:44:10;4.28;;;2.50;;
54977;SDS011;40873;47.522;19.106;2023-03-31T04:46:37;4.05;;;2.58;;
54977;SDS011;40873;47.522;19.106;2023-03-31T04:49:04;5.22;;;2.75;;
54977;SDS011;40873;47.522;19.106;2023-03-31T04:51:31;7.45;;;2.78;;
54977;SDS011;40873;47.522;19.106;2023-03-31T04:53:58;4.30;;;2.78;;
54977;SDS011;40873;47.522;19.106;2023-03-31T04:56:25;6.43;;;3.00;;
54977;SDS011;40873;47.522;19.106;2023-03-31T04:58:52;3.90;;;2.80;;
54977;SDS011;40873;47.522;19.106;2023-03-31T05:01:19;8.70;;;3.45;;
54977;SDS011;40873;47.522;19.106;2023-03-31T05:03:46;5.15;;;3.17;;
54977;SDS011;40873;47.522;19.106;2023-03-31T05:06:14;4.60;;;2.75;;
54977;SDS011;40873;47.522;19.106;2023-03-31T05:08:42;6.82;;;2.58;;
54977;SDS011;40873;47.522;19.106;2023-03-31T05:11:09;6.38;;;3.00;;
54977;SDS011;40873;47.522;19.106;2023-03-31T05:13:36;8.43;;;3.00;;
54977;SDS011;40873;47.522;19.106;2023-03-31T05:16:11;7.20;;;3.00;;
54977;SDS011;40873;47.522;19.106;2023-03-31T05:18:43;6.20;;;2.97;;
54977;SDS011;40873;47.522;19.106;2023-03-31T05:21:14;6.43;;;3.10;;
54977;SDS011;40873;47.522;19.106;2023-03-31T05:23:44;4.88;;;2.75;;
54977;SDS011;40873;47.522;19.106;2023-03-31T05:26:12;5.00;;;2.80;;
54977;SDS011;40873;47.522;19.106;2023-03-31T05:28:39;4.55;;;2.70;;
54977;SDS011;40873;47.522;19.106;2023-03-31T05:31:07;5.22;;;3.13;;
54977;SDS011;40873;47.522;19.106;2023-03-31T05:33:34;5.22;;;2.80;;
54977;SDS011;40873;47.522;19.106;2023-03-31T05:36:07;8.27;;;4.65;;
54977;SDS011;40873;47.522;19.106;2023-03-31T05:38:36;8.32;;;4.78;;
54977;SDS011;40873;47.522;19.106;2023-03-31T05:41:03;7.15;;;5.22;;
54977;SDS011;40873;47.522;19.106;2023-03-31T05:43:31;7.68;;;5.10;;
54977;SDS011;40873;47.522;19.106;2023-03-31T05:45:59;7.93;;;5.30;;
54977;SDS011;40873;47.522;19.106;2023-03-31T05:48:26;8.80;;;4.57;;
54977;SDS011;40873;47.522;19.106;2023-03-31T05:50:57;8.65;;;5.28;;
54977;SDS011;40873;47.522;19.106;2023-03-31T05:53:24;9.05;;;5.25;;
54977;SDS011;40873;47.522;19.106;2023-03-31T05:55:55;15.13;;;4.63;;
54977;SDS011;40873;47.522;19.106;2023-03-31T05:58:27;6.38;;;4.70;;
54977;SDS011;40873;47.522;19.106;2023-03-31T06:01:02;9.02;;;4.40;;
54977;SDS011;40873;47.522;19.106;2023-03-31T06:03:38;9.32;;;4.97;;
54977;SDS011;40873;47.522;19.106;2023-03-31T06:06:07;11.23;;;5.78;;
54977;SDS011;40873;47.522;19.106;2023-03-31T06:08:35;9.75;;;4.55;;
54977;SDS011;40873;47.522;19.106;2023-03-31T06:11:07;7.63;;;4.75;;
54977;SDS011;40873;47.522;19.106;2023-03-31T06:13:35;10.23;;;5.65;;
54977;SDS011;40873;47.522;19.106;2023-03-31T06:16:03;11.02;;;5.97;;
54977;SDS011;40873;47.522;19.106;2023-03-31T06:18:32;13.50;;;6.78;;
54977;SDS011;40873;47.522;19.106;2023-03-31T06:21:01;11.40;;;6.63;;
54977;SDS011;40873;47.522;19.106;2023-03-31T06:23:29;14.40;;;8.57;;
54977;SDS011;40873;47.522;19.106;2023-03-31T06:26:01;11.95;;;6.60;;
54977;SDS011;40873;47.522;19.106;2023-03-31T06:28:31;10.90;;;7.88;;
54977;SDS011;40873;47.522;19.106;2023-03-31T06:31:04;11.63;;;7.22;;
54977;SDS011;40873;47.522;19.106;2023-03-31T06:33:33;11.73;;;6.13;;
54977;SDS011;40873;47.522;19.106;2023-03-31T06:36:01;11.30;;;7.38;;
54977;SDS011;40873;47.522;19.106;2023-03-31T06:38:31;11.75;;;6.93;;
54977;SDS011;40873;47.522;19.106;2023-03-31T06:40:59;11.23;;;7.32;;
54977;SDS011;40873;47.522;19.106;2023-03-31T06:43:26;6.05;;;4.00;;
54977;SDS011;40873;47.522;19.106;2023-03-31T06:45:53;6.35;;;4.00;;
54977;SDS011;40873;47.522;19.106;2023-03-31T06:48:21;9.13;;;3.15;;
54977;SDS011;40873;47.522;19.106;2023-03-31T06:50:49;5.47;;;2.42;;
54977;SDS011;40873;47.522;19.106;2023-03-31T06:53:19;4.93;;;2.65;;
54977;SDS011;40873;47.522;19.106;2023-03-31T06:55:47;5.18;;;2.15;;
54977;SDS011;40873;47.522;19.106;2023-03-31T06:58:14;7.15;;;2.60;;
54977;SDS011;40873;47.522;19.106;2023-03-31T07:00:41;5.32;;;2.80;;
54977;SDS011;40873;47.522;19.106;2023-03-31T07:03:09;5.85;;;2.20;;
54977;SDS011;40873;47.522;19.106;2023-03-31T07:05:37;4.20;;;2.50;;
54977;SDS011;40873;47.522;19.106;2023-03-31T07:08:04;6.00;;;2.67;;
54977;SDS011;40873;47.522;19.106;2023-03-31T07:10:31;6.95;;;2.75;;
54977;SDS011;40873;47.522;19.106;2023-03-31T07:12:58;6.10;;;3.67;;
54977;SDS011;40873;47.522;19.106;2023-03-31T07:15:25;7.45;;;2.95;;
54977;SDS011;40873;47.522;19.106;2023-03-31T07:17:56;5.45;;;3.40;;
54977;SDS011;40873;47.522;19.106;2023-03-31T07:20:28;5.28;;;2.75;;
54977;SDS011;40873;47.522;19.106;2023-03-31T07:22:56;4.30;;;2.72;;
54977;SDS011;40873;47.522;19.106;2023-03-31T07:25:23;4.43;;;2.88;;
54977;SDS011;40873;47.522;19.106;2023-03-31T07:27:50;12.43;;;5.40;;
54977;SDS011;40873;47.522;19.106;2023-03-31T07:30:18;11.55;;;6.03;;
54977;SDS011;40873;47.522;19.106;2023-03-31T07:32:46;8.88;;;5.22;;
54977;SDS011;40873;47.522;19.106;2023-03-31T07:35:17;9.07;;;5.22;;
54977;SDS011;40873;47.522;19.106;2023-03-31T07:37:45;7.80;;;5.47;;
54977;SDS011;40873;47.522;19.106;2023-03-31T07:40:18;9.30;;;6.00;;
54977;SDS011;40873;47.522;19.106;2023-03-31T07:42:50;10.57;;;6.47;;
54977;SDS011;40873;47.522;19.106;2023-03-31T07:45:18;10.23;;;5.53;;
54977;SDS011;40873;47.522;19.106;2023-03-31T07:47:47;8.45;;;4.75;;
54977;SDS011;40873;47.522;19.106;2023-03-31T07:50:15;17.00;;;4.45;;
54977;SDS011;40873;47.522;19.106;2023-03-31T07:52:43;10.15;;;5.50;;
54977;SDS011;40873;47.522;19.106;2023-03-31T07:55:13;9.00;;;4.65;;
54977;SDS011;40873;47.522;19.106;2023-03-31T07:57:41;6.75;;;4.72;;
54977;SDS011;40873;47.522;19.106;2023-03-31T08:00:09;8.13;;;5.25;;
54977;SDS011;40873;47.522;19.106;2023-03-31T08:02:38;10.70;;;5.60;;
54977;SDS011;40873;47.522;19.106;2023-03-31T08:05:12;9.43;;;5.72;;
54977;SDS011;40873;47.522;19.106;2023-03-31T08:07:41;7.82;;;4.65;;
54977;SDS011;40873;47.522;19.106;2023-03-31T08:10:12;11.07;;;5.20;;
54977;SDS011;40873;47.522;19.106;2023-03-31T08:12:42;12.35;;;4.60;;
54977;SDS011;40873;47.522;19.106;2023-03-31T08:15:09;9.00;;;5.22;;
54977;SDS011;40873;47.522;19.106;2023-03-31T08:17:36;9.43;;;5.45;;
54977;SDS011;40873;47.522;19.106;2023-03-31T08:20:04;9.13;;;4.47;;
54977;SDS011;40873;47.522;19.106;2023-03-31T08:22:33;9.75;;;5.78;;
54977;SDS011;40873;47.522;19.106;2023-03-31T08:25:01;8.93;;;4.68;;
54977;SDS011;40873;47.522;19.106;2023-03-31T08:27:31;9.23;;;5.18;;
54977;SDS011;40873;47.522;19.106;2023-03-31T08:29:59;6.63;;;4.32;;
54977;SDS011;40873;47.522;19.106;2023-03-31T08:32:30;8.63;;;4.65;;
54977;SDS011;40873;47.522;19.106;2023-03-31T08:34:58;8.23;;;4.85;;
54977;SDS011;40873;47.522;19.106;2023-03-31T08:37:26;9.32;;;4.68;;
54977;SDS011;40873;47.522;19.106;2023-03-31T08:39:54;10.45;;;5.30;;
54977;SDS011;40873;47.522;19.106;2023-03-31T08:48:26;10.70;;;4.28;;
54977;SDS011;40873;47.522;19.106;2023-03-31T08:50:58;7.75;;;3.88;;
54977;SDS011;40873;47.522;19.106;2023-03-31T08:53:51;6.53;;;2.67;;
54977;SDS011;40873;47.522;19.106;2023-03-31T08:56:29;7.75;;;3.72;;
54977;SDS011;40873;47.522;19.106;2023-03-31T08:59:00;8.30;;;3.60;;
54977;SDS011;40873;47.522;19.106;2023-03-31T09:07:10;9.88;;;4.22;;
54977;SDS011;40873;47.522;19.106;2023-03-31T09:10:01;3.90;;;2.65;;
54977;SDS011;40873;47.522;19.106;2023-03-31T09:15:12;8.77;;;4.22;;
54977;SDS011;40873;47.522;19.106;2023-03-31T09:17:43;5.72;;;3.30;;
54977;SDS011;40873;47.522;19.106;2023-03-31T09:20:15;5.03;;;3.72;;
54977;SDS011;40873;47.522;19.106;2023-03-31T09:22:51;7.35;;;3.35;;
54977;SDS011;40873;47.522;19.106;2023-03-31T09:25:35;4.13;;;2.70;;
54977;SDS011;40873;47.522;19.106;2023-03-31T09:28:17;5.03;;;2.65;;
54977;SDS011;40873;47.522;19.106;2023-03-31T09:30:56;8.35;;;3.28;;
54977;SDS011;40873;47.522;19.106;2023-03-31T09:33:25;5.38;;;2.97;;
54977;SDS011;40873;47.522;19.106;2023-03-31T09:38:28;7.13;;;2.15;;
54977;SDS011;40873;47.522;19.106;2023-03-31T09:40:57;6.75;;;2.95;;
54977;SDS011;40873;47.522;19.106;2023-03-31T09:43:26;8.77;;;4.15;;
54977;SDS011;40873;47.522;19.106;2023-03-31T09:45:58;8.73;;;3.63;;
54977;SDS011;40873;47.522;19.106;2023-03-31T09:48:35;3.63;;;2.65;;
54977;SDS011;40873;47.522;19.106;2023-03-31T09:51:05;9.75;;;3.67;;
54977;SDS011;40873;47.522;19.106;2023-03-31T09:53:48;5.72;;;3.33;;
54977;SDS011;40873;47.522;19.106;2023-03-31T09:59:15;5.05;;;3.25;;
54977;SDS011;40873;47.522;19.106;2023-03-31T10:01:44;4.30;;;2.90;;
54977;SDS011;40873;47.522;19.106;2023-03-31T10:04:23;6.30;;;3.17;;
54977;SDS011;40873;47.522;19.106;2023-03-31T10:06:55;5.00;;;3.28;;
54977;SDS011;40873;47.522;19.106;2023-03-31T10:09:30;5.18;;;2.95;;
54977;SDS011;40873;47.522;19.106;2023-03-31T10:12:03;6.60;;;2.65;;
54977;SDS011;40873;47.522;19.106;2023-03-31T10:17:06;6.47;;;2.78;;
54977;SDS011;40873;47.522;19.106;2023-03-31T10:19:42;8.75;;;2.80;;
54977;SDS011;40873;47.522;19.106;2023-03-31T10:24:49;5.03;;;1.90;;
54977;SDS011;40873;47.522;19.106;2023-03-31T10:27:19;3.88;;;2.20;;
54977;SDS011;40873;47.522;19.106;2023-03-31T10:29:55;5.13;;;2.83;;
54977;SDS011;40873;47.522;19.106;2023-03-31T10:32:27;3.90;;;2.20;;
54977;SDS011;40873;47.522;19.106;2023-03-31T10:34:57;5.00;;;2.47;;
54977;SDS011;40873;47.522;19.106;2023-03-31T10:37:29;5.68;;;2.25;;
54977;SDS011;40873;47.522;19.106;2023-03-31T10:40:04;5.10;;;2.95;;
54977;SDS011;40873;47.522;19.106;2023-03-31T10:42:43;5.13;;;2.72;;
54977;SDS011;40873;47.522;19.106;2023-03-31T10:48:03;3.78;;;2.30;;
54977;SDS011;40873;47.522;19.106;2023-03-31T10:50:34;3.53;;;1.73;;
54977;SDS011;40873;47.522;19.106;2023-03-31T10:53:03;3.88;;;2.55;;
54977;SDS011;40873;47.522;19.106;2023-03-31T10:55:35;3.95;;;2.00;;
54977;SDS011;40873;47.522;19.106;2023-03-31T10:58:18;4.00;;;1.88;;
54977;SDS011;40873;47.522;19.106;2023-03-31T11:06:46;5.15;;;2.10;;
54977;SDS011;40873;47.522;19.106;2023-03-31T11:25:59;3.63;;;2.55;;
54977;SDS011;40873;47.522;19.106;2023-03-31T11:34:47;3.72;;;2.38;;
54977;SDS011;40873;47.522;19.106;2023-03-31T11:43:25;3.97;;;2.20;;
54977;SDS011;40873;47.522;19.106;2023-03-31T11:45:57;4.70;;;1.77;;
54977;SDS011;40873;47.522;19.106;2023-03-31T11:51:29;4.88;;;1.90;;
54977;SDS011;40873;47.522;19.106;2023-03-31T11:54:07;3.50;;;2.10;;
54977;SDS011;40873;47.522;19.106;2023-03-31T11:56:43;4.13;;;1.88;;
54977;SDS011;40873;47.522;19.106;2023-03-31T11:59:13;3.65;;;2.10;;
54977;SDS011;40873;47.522;19.106;2023-03-31T12:01:45;3.65;;;1.40;;
54977;SDS011;40873;47.522;19.106;2023-03-31T12:04:45;4.30;;;1.35;;
54977;SDS011;40873;47.522;19.106;2023-03-31T12:12:34;3.83;;;1.70;;
54977;SDS011;40873;47.522;19.106;2023-03-31T12:15:18;4.25;;;1.50;;
54977;SDS011;40873;47.522;19.106;2023-03-31T12:17:51;5.63;;;1.73;;
54977;SDS011;40873;47.522;19.106;2023-03-31T12:20:32;5.00;;;2.03;;
54977;SDS011;40873;47.522;19.106;2023-03-31T12:23:04;3.53;;;1.65;;
54977;SDS011;40873;47.522;19.106;2023-03-31T12:28:40;5.85;;;2.42;;
54977;SDS011;40873;47.522;19.106;2023-03-31T12:31:10;4.18;;;2.25;;
54977;SDS011;40873;47.522;19.106;2023-03-31T12:33:49;2.90;;;1.25;;
54977;SDS011;40873;47.522;19.106;2023-03-31T12:36:32;4.90;;;2.15;;
54977;SDS011;40873;47.522;19.106;2023-03-31T12:45:32;5.60;;;3.30;;
54977;SDS011;40873;47.522;19.106;2023-03-31T12:50:51;5.80;;;1.40;;
54977;SDS011;40873;47.522;19.106;2023-03-31T12:53:43;4.13;;;2.08;;
54977;SDS011;40873;47.522;19.106;2023-03-31T12:56:24;3.45;;;2.22;;
54977;SDS011;40873;47.522;19.106;2023-03-31T12:58:51;4.10;;;2.15;;
54977;SDS011;40873;47.522;19.106;2023-03-31T13:01:19;3.78;;;2.13;;
54977;SDS011;40873;47.522;19.106;2023-03-31T13:11:18;3.88;;;1.88;;
54977;SDS011;40873;47.522;19.106;2023-03-31T13:16:31;5.22;;;2.33;;
54977;SDS011;40873;47.522;19.106;2023-03-31T13:19:03;4.65;;;2.28;;
54977;SDS011;40873;47.522;19.106;2023-03-31T13:21:30;4.32;;;2.20;;
54977;SDS011;40873;47.522;19.106;2023-03-31T13:24:21;2.42;;;1.67;;
54977;SDS011;40873;47.522;19.106;2023-03-31T13:26:50;4.15;;;2.40;;
54977;SDS011;40873;47.522;19.106;2023-03-31T13:29:24;4.65;;;2.10;;
54977;SDS011;40873;47.522;19.106;2023-03-31T13:32:06;7.05;;;1.80;;
54977;SDS011;40873;47.522;19.106;2023-03-31T13:35:02;3.53;;;2.33;;
54977;SDS011;40873;47.522;19.106;2023-03-31T13:52:34;4.10;;;1.80;;
54977;SDS011;40873;47.522;19.106;2023-03-31T14:09:42;4.40;;;1.63;;
54977;SDS011;40873;47.522;19.106;2023-03-31T14:12:28;4.65;;;1.35;;
54977;SDS011;40873;47.522;19.106;2023-03-31T14:14:59;4.65;;;1.40;;
54977;SDS011;40873;47.522;19.106;2023-03-31T14:17:28;5.03;;;1.70;;
54977;SDS011;40873;47.522;19.106;2023-03-31T14:22:59;3.17;;;1.80;;
54977;SDS011;40873;47.522;19.106;2023-03-31T14:28:35;2.10;;;1.13;;
54977;SDS011;40873;47.522;19.106;2023-03-31T14:34:11;3.35;;;1.45;;
54977;SDS011;40873;47.522;19.106;2023-03-31T14:39:26;2.92;;;1.42;;
54977;SDS011;40873;47.522;19.106;2023-03-31T14:41:59;4.28;;;1.48;;
54977;SDS011;40873;47.522;19.106;2023-03-31T14:44:29;7.13;;;1.83;;
54977;SDS011;40873;47.522;19.106;2023-03-31T14:46:58;4.10;;;1.90;;
54977;SDS011;40873;47.522;19.106;2023-03-31T14:49:43;5.15;;;1.65;;
54977;SDS011;40873;47.522;19.106;2023-03-31T14:52:14;2.60;;;1.77;;
54977;SDS011;40873;47.522;19.106;2023-03-31T14:54:44;4.50;;;1.60;;
54977;SDS011;40873;47.522;19.106;2023-03-31T14:57:17;5.20;;;1.50;;
54977;SDS011;40873;47.522;19.106;2023-03-31T14:59:48;6.85;;;1.90;;
54977;SDS011;40873;47.522;19.106;2023-03-31T15:02:21;6.72;;;1.80;;
54977;SDS011;40873;47.522;19.106;2023-03-31T15:05:04;4.22;;;1.60;;
54977;SDS011;40873;47.522;19.106;2023-03-31T15:07:35;5.57;;;1.77;;
54977;SDS011;40873;47.522;19.106;2023-03-31T15:10:03;2.67;;;1.42;;
54977;SDS011;40873;47.522;19.106;2023-03-31T15:12:32;3.30;;;2.00;;
54977;SDS011;40873;47.522;19.106;2023-03-31T15:15:02;4.07;;;2.03;;
54977;SDS011;40873;47.522;19.106;2023-03-31T15:17:36;6.22;;;2.13;;
54977;SDS011;40873;47.522;19.106;2023-03-31T15:20:25;5.35;;;1.70;;
54977;SDS011;40873;47.522;19.106;2023-03-31T15:22:54;9.25;;;2.10;;
54977;SDS011;40873;47.522;19.106;2023-03-31T15:25:23;2.90;;;1.77;;
54977;SDS011;40873;47.522;19.106;2023-03-31T15:28:04;4.55;;;1.45;;
54977;SDS011;40873;47.522;19.106;2023-03-31T15:30:36;5.63;;;1.88;;
54977;SDS011;40873;47.522;19.106;2023-03-31T15:33:05;4.72;;;1.88;;
54977;SDS011;40873;47.522;19.106;2023-03-31T15:35:45;5.65;;;2.15;;
54977;SDS011;40873;47.522;19.106;2023-03-31T15:38:13;4.60;;;1.70;;
54977;SDS011;40873;47.522;19.106;2023-03-31T15:40:51;4.13;;;1.65;;
54977;SDS011;40873;47.522;19.106;2023-03-31T15:46:11;5.50;;;2.20;;
54977;SDS011;40873;47.522;19.106;2023-03-31T15:48:48;3.83;;;1.90;;
54977;SDS011;40873;47.522;19.106;2023-03-31T15:51:23;3.80;;;2.03;;
54977;SDS011;40873;47.522;19.106;2023-03-31T15:53:53;4.28;;;2.17;;
54977;SDS011;40873;47.522;19.106;2023-03-31T15:56:27;7.60;;;1.63;;
54977;SDS011;40873;47.522;19.106;2023-03-31T15:59:02;2.83;;;1.02;;
54977;SDS011;40873;47.522;19.106;2023-03-31T16:01:32;3.88;;;2.20;;
54977;SDS011;40873;47.522;19.106;2023-03-31T16:04:04;5.55;;;1.85;;
54977;SDS011;40873;47.522;19.106;2023-03-31T16:06:39;3.63;;;2.20;;
54977;SDS011;40873;47.522;19.106;2023-03-31T16:09:16;4.28;;;1.75;;
54977;SDS011;40873;47.522;19.106;2023-03-31T16:11:53;3.70;;;1.33;;
54977;SDS011;40873;47.522;19.106;2023-03-31T16:16:58;2.55;;;1.25;;
54977;SDS011;40873;47.522;19.106;2023-03-31T16:19:30;6.55;;;1.70;;
54977;SDS011;40873;47.522;19.106;2023-03-31T16:22:05;2.22;;;1.30;;
54977;SDS011;40873;47.522;19.106;2023-03-31T16:24:33;2.75;;;1.35;;
54977;SDS011;40873;47.522;19.106;2023-03-31T16:27:02;3.15;;;1.60;;
54977;SDS011;40873;47.522;19.106;2023-03-31T16:29:35;3.17;;;1.80;;
54977;SDS011;40873;47.522;19.106;2023-03-31T16:34:34;2.63;;;1.30;;
54977;SDS011;40873;47.522;19.106;2023-03-31T16:37:16;5.53;;;1.60;;
54977;SDS011;40873;47.522;19.106;2023-03-31T16:39:43;5.05;;;1.20;;
54977;SDS011;40873;47.522;19.106;2023-03-31T16:42:10;2.20;;;1.40;;
54977;SDS011;40873;47.522;19.106;2023-03-31T16:44:37;2.50;;;1.38;;
54977;SDS011;40873;47.522;19.106;2023-03-31T16:47:07;2.33;;;1.80;;
54977;SDS011;40873;47.522;19.106;2023-03-31T16:49:35;5.30;;;1.67;;
54977;SDS011;40873;47.522;19.106;2023-03-31T16:52:02;3.53;;;1.80;;
54977;SDS011;40873;47.522;19.106;2023-03-31T16:54:30;4.35;;;1.80;;
54977;SDS011;40873;47.522;19.106;2023-03-31T16:56:58;3.83;;;1.67;;
54977;SDS011;40873;47.522;19.106;2023-03-31T16:59:24;2.08;;;1.35;;
54977;SDS011;40873;47.522;19.106;2023-03-31T17:01:52;3.40;;;1.75;;
54977;SDS011;40873;47.522;19.106;2023-03-31T17:04:19;5.28;;;2.05;;
54977;SDS011;40873;47.522;19.106;2023-03-31T17:06:48;4.28;;;1.75;;
54977;SDS011;40873;47.522;19.106;2023-03-31T17:09:15;6.45;;;2.15;;
54977;SDS011;40873;47.522;19.106;2023-03-31T17:11:42;3.10;;;1.20;;
54977;SDS011;40873;47.522;19.106;2023-03-31T17:14:09;5.40;;;1.48;;
54977;SDS011;40873;47.522;19.106;2023-03-31T17:16:36;2.80;;;1.20;;
54977;SDS011;40873;47.522;19.106;2023-03-31T17:19:13;3.55;;;1.35;;
54977;SDS011;40873;47.522;19.106;2023-03-31T17:21:42;1.27;;;0.55;;
54977;SDS011;40873;47.522;19.106;2023-03-31T17:24:09;2.72;;;1.60;;
54977;SDS011;40873;47.522;19.106;2023-03-31T17:26:37;3.83;;;1.60;;
54977;SDS011;40873;47.522;19.106;2023-03-31T17:29:04;3.50;;;1.48;;
54977;SDS011;40873;47.522;19.106;2023-03-31T17:31:31;6.72;;;1.92;;
54977;SDS011;40873;47.522;19.106;2023-03-31T17:33:58;7.47;;;1.88;;
54977;SDS011;40873;47.522;19.106;2023-03-31T17:36:27;4.65;;;1.90;;
54977;SDS011;40873;47.522;19.106;2023-03-31T17:38:54;5.70;;;2.55;;
54977;SDS011;40873;47.522;19.106;2023-03-31T17:41:21;3.90;;;1.95;;
54977;SDS011;40873;47.522;19.106;2023-03-31T17:43:49;4.70;;;1.85;;
54977;SDS011;40873;47.522;19.106;2023-03-31T17:46:16;3.53;;;1.70;;
54977;SDS011;40873;47.522;19.106;2023-03-31T17:48:44;3.47;;;1.88;;
54977;SDS011;40873;47.522;19.106;2023-03-31T17:51:15;5.80;;;1.92;;
54977;SDS011;40873;47.522;19.106;2023-03-31T17:53:44;5.78;;;1.98;;
54977;SDS011;40873;47.522;19.106;2023-03-31T17:56:13;8.57;;;2.05;;
54977;SDS011;40873;47.522;19.106;2023-03-31T17:58:42;6.25;;;3.40;;